sensor_id;sensor_type;location;lat;lon;timestamp;pressure;altitude;pressure_sealevel;temperature
73662;BMP280;61956;52.540;13.382;2023-07-09T00:00:26;86868.09;;;21.53
73662;BMP280;61956;52.540;13.382;2023-07-09T00:02:57;86430.00;;;21.47
73662;BMP280;61956;52.540;13.382;2023-07-09T00:05:26;86588.94;;;21.46
73662;BMP280;61956;52.540;13.382;2023-07-09T00:07:55;86695.97;;;21.46
73662;BMP280;61956;52.540;13.382;2023-07-09T00:10:30;86305.22;;;21.40
73662;BMP280;61956;52.540;13.382;2023-07-09T00:13:00;86959.97;;;21.45
73662;BMP280;61956;52.540;13.382;2023-07-09T00:15:32;86619.75;;;21.40
73662;BMP280;61956;52.540;13.382;2023-07-09T00:18:01;87280.50;;;21.45
73662;BMP280;61956;52.540;13.382;2023-07-09T00:20:30;86869.28;;;21.42
73662;BMP280;61956;52.540;13.382;2023-07-09T00:23:00;86825.28;;;21.40
73662;BMP280;61956;52.540;13.382;2023-07-09T00:25:30;87072.22;;;21.40
73662;BMP280;61956;52.540;13.382;2023-07-09T00:28:02;87473.53;;;21.42
73662;BMP280;61956;52.540;13.382;2023-07-09T00:30:35;87548.44;;;21.43
73662;BMP280;61956;52.540;13.382;2023-07-09T00:33:04;87591.84;;;21.44
73662;BMP280;61956;52.540;13.382;2023-07-09T00:35:40;87225.25;;;21.41
73662;BMP280;61956;52.540;13.382;2023-07-09T00:38:13;87808.66;;;21.45
73662;BMP280;61956;52.540;13.382;2023-07-09T00:40:48;87631.94;;;21.44
73662;BMP280;61956;52.540;13.382;2023-07-09T00:43:18;87790.25;;;21.45
73662;BMP280;61956;52.540;13.382;2023-07-09T00:46:16;87412.47;;;21.41
73662;BMP280;61956;52.540;13.382;2023-07-09T00:49:03;87815.88;;;21.44
73662;BMP280;61956;52.540;13.382;2023-07-09T00:51:38;87504.44;;;21.41
73662;BMP280;61956;52.540;13.382;2023-07-09T00:54:19;87618.72;;;21.42
73662;BMP280;61956;52.540;13.382;2023-07-09T00:56:58;86240.88;;;21.25
73662;BMP280;61956;52.540;13.382;2023-07-09T00:59:32;86363.59;;;21.22
73662;BMP280;61956;52.540;13.382;2023-07-09T01:02:05;85707.34;;;21.12
73662;BMP280;61956;52.540;13.382;2023-07-09T01:04:36;86106.31;;;21.10
73662;BMP280;61956;52.540;13.382;2023-07-09T01:07:06;86754.75;;;21.14
73662;BMP280;61956;52.540;13.382;2023-07-09T01:09:35;85431.91;;;21.00
73662;BMP280;61956;52.540;13.382;2023-07-09T01:12:08;84746.69;;;20.89
73662;BMP280;61956;52.540;13.382;2023-07-09T01:14:39;84579.69;;;20.82
73662;BMP280;61956;52.540;13.382;2023-07-09T01:17:13;84606.03;;;20.77
73662;BMP280;61956;52.540;13.382;2023-07-09T01:19:44;84366.31;;;20.70
73662;BMP280;61956;52.540;13.382;2023-07-09T01:22:22;84464.00;;;20.67
73662;BMP280;61956;52.540;13.382;2023-07-09T01:24:59;84384.91;;;20.60
73662;BMP280;61956;52.540;13.382;2023-07-09T01:27:35;84115.03;;;20.56
73662;BMP280;61956;52.540;13.382;2023-07-09T01:30:08;83885.34;;;20.48
73662;BMP280;61956;52.540;13.382;2023-07-09T01:32:42;83645.22;;;20.41
73662;BMP280;61956;52.540;13.382;2023-07-09T01:35:13;83432.63;;;20.34
73662;BMP280;61956;52.540;13.382;2023-07-09T01:37:48;84113.66;;;20.36
73662;BMP280;61956;52.540;13.382;2023-07-09T01:40:19;84139.28;;;20.34
73662;BMP280;61956;52.540;13.382;2023-07-09T01:42:51;83713.75;;;20.29
73662;BMP280;61956;52.540;13.382;2023-07-09T01:45:21;83742.69;;;20.24
73662;BMP280;61956;52.540;13.382;2023-07-09T01:47:50;83488.91;;;20.18
73662;BMP280;61956;52.540;13.382;2023-07-09T01:50:21;83286.88;;;20.12
73662;BMP280;61956;52.540;13.382;2023-07-09T01:52:53;82791.84;;;20.03
73662;BMP280;61956;52.540;13.382;2023-07-09T01:55:24;83025.00;;;19.99
73662;BMP280;61956;52.540;13.382;2023-07-09T01:57:53;82541.13;;;19.93
73662;BMP280;61956;52.540;13.382;2023-07-09T02:00:22;82859.84;;;19.90
73662;BMP280;61956;52.540;13.382;2023-07-09T02:02:51;83824.81;;;19.96
73662;BMP280;61956;52.540;13.382;2023-07-09T02:05:21;84294.03;;;20.01
73662;BMP280;61956;52.540;13.382;2023-07-09T02:07:54;84621.31;;;20.03
73662;BMP280;61956;52.540;13.382;2023-07-09T02:10:25;85140.53;;;20.09
73662;BMP280;61956;52.540;13.382;2023-07-09T02:12:54;85878.75;;;20.17
73662;BMP280;61956;52.540;13.382;2023-07-09T02:15:25;86648.78;;;20.24
73662;BMP280;61956;52.540;13.382;2023-07-09T02:17:56;88175.81;;;20.45
73662;BMP280;61956;52.540;13.382;2023-07-09T02:20:27;86534.84;;;20.34
73662;BMP280;61956;52.540;13.382;2023-07-09T02:22:59;86791.88;;;20.36
73662;BMP280;61956;52.540;13.382;2023-07-09T02:25:30;87233.81;;;20.39
73662;BMP280;61956;52.540;13.382;2023-07-09T02:28:02;86673.19;;;20.35
73662;BMP280;61956;52.540;13.382;2023-07-09T02:30:31;86667.28;;;20.35
73662;BMP280;61956;52.540;13.382;2023-07-09T02:33:00;86483.06;;;20.32
73662;BMP280;61956;52.540;13.382;2023-07-09T02:35:29;86546.00;;;20.34
73662;BMP280;61956;52.540;13.382;2023-07-09T02:38:03;87130.88;;;20.38
73662;BMP280;61956;52.540;13.382;2023-07-09T02:40:32;87359.81;;;20.43
73662;BMP280;61956;52.540;13.382;2023-07-09T02:43:02;87383.44;;;20.43
73662;BMP280;61956;52.540;13.382;2023-07-09T02:45:31;88936.88;;;20.59
73662;BMP280;61956;52.540;13.382;2023-07-09T02:48:00;88684.97;;;20.61
73662;BMP280;61956;52.540;13.382;2023-07-09T02:50:35;87426.22;;;20.49
73662;BMP280;61956;52.540;13.382;2023-07-09T02:53:07;87292.34;;;20.47
73662;BMP280;61956;52.540;13.382;2023-07-09T02:55:36;85801.44;;;20.32
73662;BMP280;61956;52.540;13.382;2023-07-09T02:58:05;85539.34;;;20.24
73662;BMP280;61956;52.540;13.382;2023-07-09T03:00:34;85969.81;;;20.24
73662;BMP280;61956;52.540;13.382;2023-07-09T03:03:03;85504.66;;;20.19
73662;BMP280;61956;52.540;13.382;2023-07-09T03:05:33;84262.50;;;20.05
73662;BMP280;61956;52.540;13.382;2023-07-09T03:08:03;83644.34;;;19.92
73662;BMP280;61956;52.540;13.382;2023-07-09T03:10:35;82666.19;;;19.78
73662;BMP280;61956;52.540;13.382;2023-07-09T03:13:04;82141.09;;;19.65
73662;BMP280;61956;52.540;13.382;2023-07-09T03:15:33;82276.19;;;19.58
73662;BMP280;61956;52.540;13.382;2023-07-09T03:18:03;82168.69;;;19.52
73662;BMP280;61956;52.540;13.382;2023-07-09T03:20:32;82866.19;;;19.53
73662;BMP280;61956;52.540;13.382;2023-07-09T03:23:01;82946.06;;;19.50
73662;BMP280;61956;52.540;13.382;2023-07-09T03:25:30;82506.44;;;19.43
73662;BMP280;61956;52.540;13.382;2023-07-09T03:28:03;81705.22;;;19.32
73662;BMP280;61956;52.540;13.382;2023-07-09T03:30:32;82200.59;;;19.31
73662;BMP280;61956;52.540;13.382;2023-07-09T03:33:01;82925.88;;;19.34
73662;BMP280;61956;52.540;13.382;2023-07-09T03:35:30;82445.03;;;19.30
73662;BMP280;61956;52.540;13.382;2023-07-09T03:38:00;82814.34;;;19.28
73662;BMP280;61956;52.540;13.382;2023-07-09T03:40:29;83037.22;;;19.29
73662;BMP280;61956;52.540;13.382;2023-07-09T03:42:58;82338.31;;;19.22
73662;BMP280;61956;52.540;13.382;2023-07-09T03:45:30;82005.50;;;19.14
73662;BMP280;61956;52.540;13.382;2023-07-09T03:48:00;83347.22;;;19.24
73662;BMP280;61956;52.540;13.382;2023-07-09T03:50:30;83076.13;;;19.20
73662;BMP280;61956;52.540;13.382;2023-07-09T03:52:59;83438.81;;;19.22
73662;BMP280;61956;52.540;13.382;2023-07-09T03:55:29;82942.28;;;19.17
73662;BMP280;61956;52.540;13.382;2023-07-09T03:57:58;82666.13;;;19.12
73662;BMP280;61956;52.540;13.382;2023-07-09T04:00:31;83781.38;;;19.19
73662;BMP280;61956;52.540;13.382;2023-07-09T04:03:01;83212.94;;;19.14
73662;BMP280;61956;52.540;13.382;2023-07-09T04:05:34;83970.34;;;19.18
73662;BMP280;61956;52.540;13.382;2023-07-09T04:08:03;84080.13;;;19.20
73662;BMP280;61956;52.540;13.382;2023-07-09T04:10:33;84339.63;;;19.23
73662;BMP280;61956;52.540;13.382;2023-07-09T04:13:02;84919.59;;;19.28
73662;BMP280;61956;52.540;13.382;2023-07-09T04:15:34;84631.25;;;19.26
73662;BMP280;61956;52.540;13.382;2023-07-09T04:18:04;84488.03;;;19.24
73662;BMP280;61956;52.540;13.382;2023-07-09T04:20:33;85546.88;;;19.34
73662;BMP280;61956;52.540;13.382;2023-07-09T04:23:03;84577.59;;;19.27
73662;BMP280;61956;52.540;13.382;2023-07-09T04:25:34;85415.41;;;19.33
73662;BMP280;61956;52.540;13.382;2023-07-09T04:28:04;85267.53;;;19.32
73662;BMP280;61956;52.540;13.382;2023-07-09T04:30:37;85363.72;;;19.34
73662;BMP280;61956;52.540;13.382;2023-07-09T04:33:06;86073.00;;;19.40
73662;BMP280;61956;52.540;13.382;2023-07-09T04:35:35;86681.75;;;19.45
73662;BMP280;61956;52.540;13.382;2023-07-09T04:38:04;87490.66;;;19.57
73662;BMP280;61956;52.540;13.382;2023-07-09T04:40:34;87227.44;;;19.58
73662;BMP280;61956;52.540;13.382;2023-07-09T04:43:03;87688.66;;;19.64
73662;BMP280;61956;52.540;13.382;2023-07-09T04:45:35;88527.69;;;19.74
73662;BMP280;61956;52.540;13.382;2023-07-09T04:48:05;90220.59;;;19.96
73662;BMP280;61956;52.540;13.382;2023-07-09T04:50:34;89499.22;;;19.98
73662;BMP280;61956;52.540;13.382;2023-07-09T04:53:06;89801.31;;;20.05
73662;BMP280;61956;52.540;13.382;2023-07-09T04:55:35;91308.16;;;20.24
73662;BMP280;61956;52.540;13.382;2023-07-09T04:58:05;91154.59;;;20.33
73662;BMP280;61956;52.540;13.382;2023-07-09T05:00:36;90208.34;;;20.28
73662;BMP280;61956;52.540;13.382;2023-07-09T05:03:06;91050.75;;;20.39
73662;BMP280;61956;52.540;13.382;2023-07-09T05:05:35;91578.25;;;20.48
73662;BMP280;61956;52.540;13.382;2023-07-09T05:08:10;91773.94;;;20.55
73662;BMP280;61956;52.540;13.382;2023-07-09T05:10:43;91802.91;;;20.63
73662;BMP280;61956;52.540;13.382;2023-07-09T05:13:13;92283.47;;;20.72
73662;BMP280;61956;52.540;13.382;2023-07-09T05:15:46;91939.50;;;20.76
73662;BMP280;61956;52.540;13.382;2023-07-09T05:18:17;91855.59;;;20.78
73662;BMP280;61956;52.540;13.382;2023-07-09T05:20:47;92018.25;;;20.82
73662;BMP280;61956;52.540;13.382;2023-07-09T05:23:16;92481.34;;;20.91
73662;BMP280;61956;52.540;13.382;2023-07-09T05:25:45;92744.50;;;20.99
73662;BMP280;61956;52.540;13.382;2023-07-09T05:28:14;93565.09;;;21.14
73662;BMP280;61956;52.540;13.382;2023-07-09T05:30:46;93550.78;;;21.20
73662;BMP280;61956;52.540;13.382;2023-07-09T05:33:18;93789.88;;;21.27
73662;BMP280;61956;52.540;13.382;2023-07-09T05:35:47;92842.03;;;21.25
73662;BMP280;61956;52.540;13.382;2023-07-09T05:38:17;93547.47;;;21.37
73662;BMP280;61956;52.540;13.382;2023-07-09T05:40:46;92704.88;;;21.35
73662;BMP280;61956;52.540;13.382;2023-07-09T05:43:16;94326.81;;;21.51
73662;BMP280;61956;52.540;13.382;2023-07-09T05:45:47;95229.72;;;21.69
73662;BMP280;61956;52.540;13.382;2023-07-09T05:48:19;95844.09;;;21.88
73662;BMP280;61956;52.540;13.382;2023-07-09T05:50:53;94960.06;;;21.87
73662;BMP280;61956;52.540;13.382;2023-07-09T05:53:23;96476.47;;;22.12
73662;BMP280;61956;52.540;13.382;2023-07-09T05:55:53;96080.50;;;22.20
73662;BMP280;61956;52.540;13.382;2023-07-09T05:58:23;95764.47;;;22.24
73662;BMP280;61956;52.540;13.382;2023-07-09T06:00:55;96584.44;;;22.39
73662;BMP280;61956;52.540;13.382;2023-07-09T06:03:26;96905.13;;;22.55
73662;BMP280;61956;52.540;13.382;2023-07-09T06:05:59;96792.16;;;22.62
73662;BMP280;61956;52.540;13.382;2023-07-09T06:08:28;96521.50;;;22.71
73662;BMP280;61956;52.540;13.382;2023-07-09T06:10:59;96128.09;;;22.67
73662;BMP280;61956;52.540;13.382;2023-07-09T06:13:31;97481.66;;;22.93
73662;BMP280;61956;52.540;13.382;2023-07-09T06:16:03;96533.38;;;22.91
73662;BMP280;61956;52.540;13.382;2023-07-09T06:18:34;97039.28;;;23.07
73662;BMP280;61956;52.540;13.382;2023-07-09T06:21:04;97745.38;;;23.23
73662;BMP280;61956;52.540;13.382;2023-07-09T06:23:35;97169.69;;;23.23
73662;BMP280;61956;52.540;13.382;2023-07-09T06:26:04;99525.97;;;23.60
73662;BMP280;61956;52.540;13.382;2023-07-09T06:28:33;99761.50;;;23.88
73662;BMP280;61956;52.540;13.382;2023-07-09T06:31:05;98067.81;;;23.80
73662;BMP280;61956;52.540;13.382;2023-07-09T06:33:34;97027.16;;;23.69
73662;BMP280;61956;52.540;13.382;2023-07-09T06:36:04;100587.66;;;24.19
73662;BMP280;61956;52.540;13.382;2023-07-09T06:38:36;100673.06;;;24.46
73662;BMP280;61956;52.540;13.382;2023-07-09T06:41:06;99174.97;;;24.53
73662;BMP280;61956;52.540;13.382;2023-07-09T06:43:35;100426.78;;;24.72
73662;BMP280;61956;52.540;13.382;2023-07-09T06:46:09;105191.75;;;25.55
73662;BMP280;61956;52.540;13.382;2023-07-09T06:48:40;102888.63;;;26.10
73662;BMP280;61956;52.540;13.382;2023-07-09T06:51:09;103327.50;;;26.50
73662;BMP280;61956;52.540;13.382;2023-07-09T06:53:39;103815.63;;;27.02
73662;BMP280;61956;52.540;13.382;2023-07-09T06:56:08;107859.19;;;28.09
73662;BMP280;61956;52.540;13.382;2023-07-09T06:58:37;103081.72;;;28.54
73662;BMP280;61956;52.540;13.382;2023-07-09T07:01:09;102379.78;;;28.08
73662;BMP280;61956;52.540;13.382;2023-07-09T07:03:39;106740.31;;;29.58
73662;BMP280;61956;52.540;13.382;2023-07-09T07:06:09;98962.53;;;28.52
73662;BMP280;61956;52.540;13.382;2023-07-09T07:08:38;99634.53;;;28.18
73662;BMP280;61956;52.540;13.382;2023-07-09T07:11:07;99203.06;;;28.51
73662;BMP280;61956;52.540;13.382;2023-07-09T07:13:38;99024.06;;;27.97
73662;BMP280;61956;52.540;13.382;2023-07-09T07:16:12;98704.53;;;28.26
73662;BMP280;61956;52.540;13.382;2023-07-09T07:18:44;104666.91;;;29.39
73662;BMP280;61956;52.540;13.382;2023-07-09T07:21:13;105708.22;;;30.50
73662;BMP280;61956;52.540;13.382;2023-07-09T07:23:42;107084.03;;;31.64
73662;BMP280;61956;52.540;13.382;2023-07-09T07:26:11;105674.13;;;32.19
73662;BMP280;61956;52.540;13.382;2023-07-09T07:28:41;102934.13;;;32.01
73662;BMP280;61956;52.540;13.382;2023-07-09T07:31:12;103723.06;;;32.14
73662;BMP280;61956;52.540;13.382;2023-07-09T07:33:41;104468.41;;;32.61
73662;BMP280;61956;52.540;13.382;2023-07-09T07:36:11;103321.94;;;32.64
73662;BMP280;61956;52.540;13.382;2023-07-09T07:38:41;104120.00;;;32.95
73662;BMP280;61956;52.540;13.382;2023-07-09T07:41:10;103952.91;;;33.31
73662;BMP280;61956;52.540;13.382;2023-07-09T07:43:40;102820.50;;;33.26
73662;BMP280;61956;52.540;13.382;2023-07-09T07:46:12;102014.69;;;33.01
73662;BMP280;61956;52.540;13.382;2023-07-09T07:48:41;101170.56;;;32.85
73662;BMP280;61956;52.540;13.382;2023-07-09T07:51:10;99826.50;;;32.33
73662;BMP280;61956;52.540;13.382;2023-07-09T07:53:39;102430.78;;;32.81
73662;BMP280;61956;52.540;13.382;2023-07-09T07:56:08;103446.50;;;33.36
73662;BMP280;61956;52.540;13.382;2023-07-09T07:58:38;101181.41;;;33.10
73662;BMP280;61956;52.540;13.382;2023-07-09T08:01:07;101525.63;;;33.03
73662;BMP280;61956;52.540;13.382;2023-07-09T08:03:42;102627.84;;;33.25
73662;BMP280;61956;52.540;13.382;2023-07-09T08:06:11;103954.00;;;33.73
73662;BMP280;61956;52.540;13.382;2023-07-09T08:08:40;104031.47;;;34.10
73662;BMP280;61956;52.540;13.382;2023-07-09T08:11:09;104102.84;;;34.22
73662;BMP280;61956;52.540;13.382;2023-07-09T08:13:39;104210.69;;;34.47
73662;BMP280;61956;52.540;13.382;2023-07-09T08:16:08;104086.06;;;34.71
73662;BMP280;61956;52.540;13.382;2023-07-09T08:18:42;102810.00;;;34.82
73662;BMP280;61956;52.540;13.382;2023-07-09T08:21:11;103960.19;;;34.88
73662;BMP280;61956;52.540;13.382;2023-07-09T08:23:40;101947.69;;;34.56
73662;BMP280;61956;52.540;13.382;2023-07-09T08:26:09;100815.06;;;33.65
73662;BMP280;61956;52.540;13.382;2023-07-09T08:28:38;100503.34;;;33.60
73662;BMP280;61956;52.540;13.382;2023-07-09T08:31:08;102720.00;;;34.16
73662;BMP280;61956;52.540;13.382;2023-07-09T08:33:37;97632.81;;;32.83
73662;BMP280;61956;52.540;13.382;2023-07-09T08:36:09;98834.69;;;32.37
73662;BMP280;61956;52.540;13.382;2023-07-09T08:38:40;101727.63;;;33.31
73662;BMP280;61956;52.540;13.382;2023-07-09T08:41:23;101543.03;;;33.74
73662;BMP280;61956;52.540;13.382;2023-07-09T08:44:11;101516.53;;;33.83
73662;BMP280;61956;52.540;13.382;2023-07-09T08:47:07;101053.09;;;33.39
73662;BMP280;61956;52.540;13.382;2023-07-09T08:49:49;100836.69;;;33.43
73662;BMP280;61956;52.540;13.382;2023-07-09T08:52:30;101163.41;;;33.42
73662;BMP280;61956;52.540;13.382;2023-07-09T08:55:05;100775.59;;;33.44
73662;BMP280;61956;52.540;13.382;2023-07-09T08:57:40;102704.44;;;33.91
73662;BMP280;61956;52.540;13.382;2023-07-09T09:00:15;101443.41;;;33.74
73662;BMP280;61956;52.540;13.382;2023-07-09T09:02:50;101501.13;;;33.80
73662;BMP280;61956;52.540;13.382;2023-07-09T09:05:24;101159.19;;;33.77
73662;BMP280;61956;52.540;13.382;2023-07-09T09:08:01;94822.41;;;31.98
73662;BMP280;61956;52.540;13.382;2023-07-09T09:10:38;94075.44;;;30.78
73662;BMP280;61956;52.540;13.382;2023-07-09T09:13:13;94398.38;;;30.30
73662;BMP280;61956;52.540;13.382;2023-07-09T09:15:46;95335.97;;;30.17
73662;BMP280;61956;52.540;13.382;2023-07-09T09:18:20;95207.41;;;30.01
73662;BMP280;61956;52.540;13.382;2023-07-09T09:20:55;95988.34;;;30.04
73662;BMP280;61956;52.540;13.382;2023-07-09T09:23:46;96028.66;;;29.95
73662;BMP280;61956;52.540;13.382;2023-07-09T09:26:23;96479.44;;;30.00
73662;BMP280;61956;52.540;13.382;2023-07-09T09:28:55;96577.28;;;29.97
73662;BMP280;61956;52.540;13.382;2023-07-09T09:31:26;96223.59;;;29.89
73662;BMP280;61956;52.540;13.382;2023-07-09T09:33:57;96812.03;;;29.90
73662;BMP280;61956;52.540;13.382;2023-07-09T09:36:27;97066.72;;;29.96
73662;BMP280;61956;52.540;13.382;2023-07-09T09:39:01;96382.63;;;29.84
73662;BMP280;61956;52.540;13.382;2023-07-09T09:41:34;97424.50;;;29.94
73662;BMP280;61956;52.540;13.382;2023-07-09T09:44:14;96891.00;;;29.91
73662;BMP280;61956;52.540;13.382;2023-07-09T09:46:48;97004.88;;;29.88
73662;BMP280;61956;52.540;13.382;2023-07-09T09:49:18;97328.31;;;29.94
73662;BMP280;61956;52.540;13.382;2023-07-09T09:51:48;97342.88;;;29.93
73662;BMP280;61956;52.540;13.382;2023-07-09T09:54:24;96903.06;;;29.86
73662;BMP280;61956;52.540;13.382;2023-07-09T09:56:56;97701.56;;;29.97
73662;BMP280;61956;52.540;13.382;2023-07-09T09:59:29;97732.66;;;30.03
73662;BMP280;61956;52.540;13.382;2023-07-09T10:02:02;96975.28;;;29.92
73662;BMP280;61956;52.540;13.382;2023-07-09T10:04:44;96916.31;;;29.80
73662;BMP280;61956;52.540;13.382;2023-07-09T10:07:21;96525.25;;;29.72
73662;BMP280;61956;52.540;13.382;2023-07-09T10:10:00;97234.53;;;29.82
73662;BMP280;61956;52.540;13.382;2023-07-09T10:12:45;97741.94;;;29.90
73662;BMP280;61956;52.540;13.382;2023-07-09T10:15:28;97421.69;;;29.88
73662;BMP280;61956;52.540;13.382;2023-07-09T10:18:09;97753.69;;;29.92
73662;BMP280;61956;52.540;13.382;2023-07-09T10:21:00;97853.81;;;30.00
73662;BMP280;61956;52.540;13.382;2023-07-09T10:23:39;98190.31;;;30.11
73662;BMP280;61956;52.540;13.382;2023-07-09T10:26:25;97890.69;;;30.05
73662;BMP280;61956;52.540;13.382;2023-07-09T10:29:25;97748.38;;;30.01
73662;BMP280;61956;52.540;13.382;2023-07-09T10:32:18;98988.44;;;30.30
73662;BMP280;61956;52.540;13.382;2023-07-09T10:35:01;98803.75;;;30.33
73662;BMP280;61956;52.540;13.382;2023-07-09T10:37:55;98238.44;;;30.24
73662;BMP280;61956;52.540;13.382;2023-07-09T10:40:39;98053.28;;;30.20
73662;BMP280;61956;52.540;13.382;2023-07-09T10:43:18;97633.78;;;30.12
73662;BMP280;61956;52.540;13.382;2023-07-09T10:46:05;97621.41;;;30.06
73662;BMP280;61956;52.540;13.382;2023-07-09T10:48:43;97918.81;;;30.10
73662;BMP280;61956;52.540;13.382;2023-07-09T10:51:22;98303.09;;;30.22
73662;BMP280;61956;52.540;13.382;2023-07-09T10:53:57;98385.78;;;30.29
73662;BMP280;61956;52.540;13.382;2023-07-09T10:56:33;97881.25;;;30.23
73662;BMP280;61956;52.540;13.382;2023-07-09T10:59:21;97829.34;;;30.11
73662;BMP280;61956;52.540;13.382;2023-07-09T11:01:58;99002.81;;;30.36
73662;BMP280;61956;52.540;13.382;2023-07-09T11:04:44;98585.38;;;30.39
73662;BMP280;61956;52.540;13.382;2023-07-09T11:07:23;98356.66;;;30.31
73662;BMP280;61956;52.540;13.382;2023-07-09T11:09:58;98499.41;;;30.37
73662;BMP280;61956;52.540;13.382;2023-07-09T11:12:33;98226.78;;;30.30
73662;BMP280;61956;52.540;13.382;2023-07-09T11:15:10;99141.44;;;30.44
73662;BMP280;61956;52.540;13.382;2023-07-09T11:17:45;98112.34;;;30.25
73662;BMP280;61956;52.540;13.382;2023-07-09T11:20:23;98471.19;;;30.36
73662;BMP280;61956;52.540;13.382;2023-07-09T11:23:01;98848.56;;;30.45
73662;BMP280;61956;52.540;13.382;2023-07-09T11:25:41;99099.19;;;30.56
73662;BMP280;61956;52.540;13.382;2023-07-09T11:28:12;99160.28;;;30.61
73662;BMP280;61956;52.540;13.382;2023-07-09T11:30:50;98824.16;;;30.60
73662;BMP280;61956;52.540;13.382;2023-07-09T11:33:28;98218.19;;;30.48
73662;BMP280;61956;52.540;13.382;2023-07-09T11:36:08;99591.97;;;30.68
73662;BMP280;61956;52.540;13.382;2023-07-09T11:38:43;98562.53;;;30.64
73662;BMP280;61956;52.540;13.382;2023-07-09T11:41:26;98045.47;;;30.47
73662;BMP280;61956;52.540;13.382;2023-07-09T11:44:15;99350.22;;;30.68
73662;BMP280;61956;52.540;13.382;2023-07-09T11:47:00;99153.06;;;30.78
73662;BMP280;61956;52.540;13.382;2023-07-09T11:49:38;99173.69;;;30.81
73662;BMP280;61956;52.540;13.382;2023-07-09T11:52:20;97862.81;;;30.47
73662;BMP280;61956;52.540;13.382;2023-07-09T11:54:54;97638.69;;;30.32
73662;BMP280;61956;52.540;13.382;2023-07-09T11:57:23;98590.84;;;30.49
73662;BMP280;61956;52.540;13.382;2023-07-09T11:59:52;99532.63;;;30.73
73662;BMP280;61956;52.540;13.382;2023-07-09T12:02:40;99563.03;;;30.87
73662;BMP280;61956;52.540;13.382;2023-07-09T12:05:10;99200.41;;;30.84
73662;BMP280;61956;52.540;13.382;2023-07-09T12:07:40;98811.19;;;30.74
73662;BMP280;61956;52.540;13.382;2023-07-09T12:10:18;98404.19;;;30.65
73662;BMP280;61956;52.540;13.382;2023-07-09T12:12:54;98333.75;;;30.56
73662;BMP280;61956;52.540;13.382;2023-07-09T12:15:25;98030.66;;;30.55
73662;BMP280;61956;52.540;13.382;2023-07-09T12:18:01;99088.16;;;30.73
73662;BMP280;61956;52.540;13.382;2023-07-09T12:20:38;99966.28;;;30.98
73662;BMP280;61956;52.540;13.382;2023-07-09T12:23:20;98369.50;;;30.74
73662;BMP280;61956;52.540;13.382;2023-07-09T12:25:52;99152.94;;;30.85
73662;BMP280;61956;52.540;13.382;2023-07-09T12:28:22;99314.03;;;30.83
73662;BMP280;61956;52.540;13.382;2023-07-09T12:30:52;99258.81;;;30.89
73662;BMP280;61956;52.540;13.382;2023-07-09T12:33:26;99591.19;;;31.02
73662;BMP280;61956;52.540;13.382;2023-07-09T12:35:57;98946.91;;;30.94
73662;BMP280;61956;52.540;13.382;2023-07-09T12:38:32;98924.41;;;30.91
73662;BMP280;61956;52.540;13.382;2023-07-09T12:41:18;99162.63;;;30.98
73662;BMP280;61956;52.540;13.382;2023-07-09T12:43:52;99402.50;;;30.99
73662;BMP280;61956;52.540;13.382;2023-07-09T12:46:24;100212.69;;;31.16
73662;BMP280;61956;52.540;13.382;2023-07-09T12:48:57;100166.72;;;31.28
73662;BMP280;61956;52.540;13.382;2023-07-09T12:51:29;99925.13;;;31.23
73662;BMP280;61956;52.540;13.382;2023-07-09T12:54:13;100241.75;;;31.39
73662;BMP280;61956;52.540;13.382;2023-07-09T12:56:44;99074.13;;;31.22
73662;BMP280;61956;52.540;13.382;2023-07-09T12:59:18;99346.31;;;31.19
73662;BMP280;61956;52.540;13.382;2023-07-09T13:01:50;98638.34;;;31.02
73662;BMP280;61956;52.540;13.382;2023-07-09T13:04:31;99449.06;;;31.09
73662;BMP280;61956;52.540;13.382;2023-07-09T13:07:01;100313.34;;;31.42
73662;BMP280;61956;52.540;13.382;2023-07-09T13:09:33;100052.84;;;31.47
73662;BMP280;61956;52.540;13.382;2023-07-09T13:12:03;99106.94;;;31.26
73662;BMP280;61956;52.540;13.382;2023-07-09T13:14:33;100231.72;;;31.50
73662;BMP280;61956;52.540;13.382;2023-07-09T13:17:04;99656.13;;;31.40
73662;BMP280;61956;52.540;13.382;2023-07-09T13:19:37;99911.84;;;31.50
73662;BMP280;61956;52.540;13.382;2023-07-09T13:22:08;99555.03;;;31.41
73662;BMP280;61956;52.540;13.382;2023-07-09T13:24:42;100453.91;;;31.62
73662;BMP280;61956;52.540;13.382;2023-07-09T13:27:15;100570.41;;;31.76
73662;BMP280;61956;52.540;13.382;2023-07-09T13:29:45;99846.13;;;31.69
73662;BMP280;61956;52.540;13.382;2023-07-09T13:32:15;99776.47;;;31.65
73662;BMP280;61956;52.540;13.382;2023-07-09T13:34:47;99670.03;;;31.58
73662;BMP280;61956;52.540;13.382;2023-07-09T13:37:16;99241.84;;;31.55
73662;BMP280;61956;52.540;13.382;2023-07-09T13:39:46;99368.50;;;31.43
73662;BMP280;61956;52.540;13.382;2023-07-09T13:42:17;100458.47;;;31.69
73662;BMP280;61956;52.540;13.382;2023-07-09T13:44:47;99518.00;;;31.55
73662;BMP280;61956;52.540;13.382;2023-07-09T13:47:18;99599.63;;;31.54
73662;BMP280;61956;52.540;13.382;2023-07-09T13:49:50;100331.25;;;31.74
73662;BMP280;61956;52.540;13.382;2023-07-09T13:52:21;99671.91;;;31.61
73662;BMP280;61956;52.540;13.382;2023-07-09T13:54:52;99913.59;;;31.67
73662;BMP280;61956;52.540;13.382;2023-07-09T13:57:22;99849.28;;;31.63
73662;BMP280;61956;52.540;13.382;2023-07-09T13:59:51;99414.91;;;31.60
73662;BMP280;61956;52.540;13.382;2023-07-09T14:02:23;98973.13;;;31.51
73662;BMP280;61956;52.540;13.382;2023-07-09T14:05:00;99437.94;;;31.57
73662;BMP280;61956;52.540;13.382;2023-07-09T14:07:33;99079.66;;;31.47
73662;BMP280;61956;52.540;13.382;2023-07-09T14:10:10;98242.88;;;31.21
73662;BMP280;61956;52.540;13.382;2023-07-09T14:12:45;99880.88;;;31.45
73662;BMP280;61956;52.540;13.382;2023-07-09T14:15:18;100027.38;;;31.70
73662;BMP280;61956;52.540;13.382;2023-07-09T14:17:49;99231.50;;;31.57
73662;BMP280;61956;52.540;13.382;2023-07-09T14:20:21;99811.00;;;31.59
73662;BMP280;61956;52.540;13.382;2023-07-09T14:22:53;100624.03;;;31.86
73662;BMP280;61956;52.540;13.382;2023-07-09T14:25:25;100226.16;;;31.86